Time;durP1;ratioP1;P1;durP2;ratioP2;P2;SDS_P1;SDS_P2;PMS_P1;PMS_P2;Temp;Humidity;BMP_temperature;BMP_pressure;BME280_temperature;BME280_humidity;BME280_pressure;Samples;Min_cycle;Max_cycle;Signal;HPM_P1;HPM_P2
2023/03/21 04:00:24;;;;;;;8.60;7.93;;;8.30;99.90;;;;;;5926248;23;20508;-76
2023/03/21 04:02:50;;;;;;;9.53;8.70;;;8.40;99.90;;;;;;4993027;28;20188;-76
2023/03/21 04:05:19;;;;;;;9.03;8.40;;;8.40;99.90;;;;;;4993634;28;20275;-77
2023/03/21 04:07:49;;;;;;;10.20;8.90;;;8.30;99.90;;;;;;4992847;28;20266;-77
2023/03/21 04:10:16;;;;;;;8.37;7.73;;;8.30;99.90;;;;;;4993132;28;20186;-77
2023/03/21 04:12:41;;;;;;;10.27;8.33;;;8.40;99.90;;;;;;4993929;28;20750;-77
2023/03/21 04:15:08;;;;;;;10.57;9.77;;;8.30;99.90;;;;;;5009872;23;20960;-74
2023/03/21 04:17:34;;;;;;;12.47;11.57;;;8.30;99.90;;;;;;4955429;29;20213;-74
2023/03/21 04:20:00;;;;;;;14.60;13.50;;;8.30;99.90;;;;;;4964152;28;20231;-74
2023/03/21 04:22:25;;;;;;;15.27;13.97;;;8.40;99.90;;;;;;4956830;28;20216;-75
2023/03/21 04:24:52;;;;;;;15.00;14.00;;;8.40;99.90;;;;;;4974083;28;20217;-75
2023/03/21 04:27:17;;;;;;;15.97;14.87;;;8.30;99.90;;;;;;4974176;28;20178;-75
2023/03/21 04:29:43;;;;;;;13.97;13.07;;;8.30;99.90;;;;;;4951310;28;20704;-75
2023/03/21 04:32:15;;;;;;;14.07;12.77;;;8.30;99.90;;;;;;4958314;28;20192;-75
2023/03/21 04:34:48;;;;;;;13.90;13.00;;;8.30;99.90;;;;;;4959323;28;20678;-74
2023/03/21 04:37:19;;;;;;;14.83;13.83;;;8.30;99.90;;;;;;4974699;28;20592;-74
2023/03/21 04:39:46;;;;;;;14.20;13.20;;;8.20;99.90;;;;;;4973738;28;20316;-75
2023/03/21 04:42:13;;;;;;;14.77;13.87;;;8.20;99.90;;;;;;4956958;28;20232;-75
2023/03/21 04:44:40;;;;;;;15.87;14.77;;;8.20;99.90;;;;;;4956862;28;20267;-75
2023/03/21 04:47:06;;;;;;;14.10;13.10;;;8.20;99.90;;;;;;4974027;28;20212;-75
2023/03/21 04:49:32;;;;;;;11.23;10.53;;;8.20;99.90;;;;;;4973600;28;20612;-75
2023/03/21 04:51:58;;;;;;;11.40;10.50;;;8.30;99.90;;;;;;4963276;28;20240;-76
2023/03/21 04:54:24;;;;;;;10.70;9.87;;;8.20;99.90;;;;;;4922108;29;20190;-75
2023/03/21 04:56:51;;;;;;;9.30;8.50;;;8.20;99.90;;;;;;4934674;29;20210;-76
2023/03/21 04:59:17;;;;;;;11.23;10.53;;;8.30;99.90;;;;;;4948546;29;20272;-74
2023/03/21 05:01:43;;;;;;;14.17;13.10;;;8.20;99.90;;;;;;4953370;29;20182;-74
2023/03/21 05:04:11;;;;;;;15.37;14.07;;;8.20;99.90;;;;;;4953836;29;20205;-74
2023/03/21 05:06:37;;;;;;;14.13;13.17;;;8.20;99.90;;;;;;4936373;29;20277;-74
2023/03/21 05:09:05;;;;;;;15.90;14.63;;;8.20;99.90;;;;;;4952821;28;20178;-74
2023/03/21 05:11:36;;;;;;;15.17;14.07;;;8.20;99.90;;;;;;4936549;29;20188;-73
2023/03/21 05:14:03;;;;;;;14.80;13.70;;;8.20;99.90;;;;;;4936717;29;20617;-73
2023/03/21 05:16:29;;;;;;;14.60;13.40;;;8.20;99.90;;;;;;4953657;28;20217;-74
2023/03/21 05:18:57;;;;;;;14.53;13.53;;;8.20;99.90;;;;;;4953945;29;20543;-74
2023/03/21 05:21:28;;;;;;;13.53;12.17;;;8.20;99.90;;;;;;4953483;29;20177;-74
2023/03/21 05:23:55;;;;;;;13.37;12.27;;;8.20;99.90;;;;;;4953674;29;20705;-74
2023/03/21 05:26:22;;;;;;;12.87;11.87;;;8.20;99.90;;;;;;4953537;28;20675;-74
2023/03/21 05:28:47;;;;;;;13.30;12.07;;;8.20;99.90;;;;;;4953062;29;20277;-74
2023/03/21 05:31:15;;;;;;;12.07;11.10;;;8.20;99.90;;;;;;4936571;29;20557;-74
2023/03/21 05:33:42;;;;;;;11.30;10.23;;;8.20;99.90;;;;;;4953476;29;20182;-74
2023/03/21 05:36:08;;;;;;;12.57;11.10;;;8.20;99.90;;;;;;4936303;29;20230;-66
2023/03/21 05:38:34;;;;;;;11.40;10.50;;;8.20;99.90;;;;;;4953104;29;20280;-65
2023/03/21 05:41:00;;;;;;;10.40;9.50;;;8.20;99.90;;;;;;4936286;29;20269;-65
2023/03/21 05:43:26;;;;;;;9.77;8.87;;;8.20;99.90;;;;;;4953025;29;20574;-66
2023/03/21 05:45:52;;;;;;;10.13;9.30;;;8.30;99.90;;;;;;4953360;28;20674;-66
2023/03/21 05:48:18;;;;;;;13.03;9.10;;;8.30;99.90;;;;;;4935590;29;20181;-66
2023/03/21 05:50:44;;;;;;;9.77;9.03;;;8.40;99.90;;;;;;4953321;29;20637;-66
2023/03/21 05:53:09;;;;;;;13.40;12.40;;;8.40;99.90;;;;;;4953214;29;20217;-66
2023/03/21 05:55:35;;;;;;;13.53;12.53;;;8.40;99.90;;;;;;4953284;28;20202;-66
2023/03/21 05:58:01;;;;;;;13.53;12.60;;;8.40;99.90;;;;;;4953160;29;20182;-65
2023/03/21 06:00:27;;;;;;;17.13;15.73;;;8.50;99.90;;;;;;4935427;29;20184;-66
2023/03/21 06:02:53;;;;;;;13.90;12.77;;;8.50;99.90;;;;;;4953303;29;20571;-66
2023/03/21 06:05:19;;;;;;;16.93;15.30;;;8.50;99.90;;;;;;4953106;28;20270;-65
2023/03/21 06:07:45;;;;;;;15.30;14.20;;;8.60;99.90;;;;;;4952654;29;20661;-65
2023/03/21 06:10:11;;;;;;;14.63;13.27;;;8.60;99.90;;;;;;4952600;29;20183;-65
2023/03/21 06:12:37;;;;;;;10.77;9.97;;;8.60;99.90;;;;;;4952987;29;20316;-65
2023/03/21 06:15:04;;;;;;;9.30;8.60;;;8.70;99.90;;;;;;4952387;28;20315;-65
2023/03/21 06:17:31;;;;;;;9.53;8.63;;;8.70;99.90;;;;;;4953043;29;20185;-66
2023/03/21 06:19:59;;;;;;;10.00;9.07;;;8.80;99.90;;;;;;4952503;28;20190;-66
2023/03/21 06:22:26;;;;;;;10.70;9.80;;;8.80;99.90;;;;;;4935612;29;20190;-65
2023/03/21 06:24:52;;;;;;;9.43;8.63;;;8.90;99.90;;;;;;4952635;28;20220;-66
2023/03/21 06:27:18;;;;;;;9.47;8.50;;;9.00;99.90;;;;;;4952953;29;20614;-65
2023/03/21 06:29:45;;;;;;;12.27;9.33;;;9.00;99.90;;;;;;4951976;29;20182;-65
2023/03/21 06:32:11;;;;;;;9.50;8.70;;;9.10;99.90;;;;;;4952889;29;20214;-64
2023/03/21 06:34:37;;;;;;;13.40;12.20;;;9.20;99.90;;;;;;4952741;29;20260;-66
2023/03/21 06:37:03;;;;;;;22.20;20.60;;;9.20;99.90;;;;;;4952072;28;20297;-68
2023/03/21 06:39:30;;;;;;;19.60;18.10;;;9.20;99.90;;;;;;4951606;29;20182;-68
2023/03/21 06:41:56;;;;;;;23.50;22.00;;;9.30;99.90;;;;;;4951493;29;20220;-67
2023/03/21 06:44:23;;;;;;;35.93;33.47;;;9.40;99.90;;;;;;4951780;29;20244;-68
2023/03/21 06:46:53;;;;;;;62.33;58.90;;;9.50;99.90;;;;;;4935059;29;20202;-68
2023/03/21 06:49:19;;;;;;;43.87;41.53;;;9.60;99.90;;;;;;4952688;29;20646;-68
2023/03/21 06:51:45;;;;;;;22.00;20.53;;;9.70;99.90;;;;;;4952898;28;20187;-68
2023/03/21 06:54:13;;;;;;;13.93;12.87;;;9.80;99.90;;;;;;4952841;29;20237;-68
2023/03/21 06:56:39;;;;;;;13.40;10.30;;;9.90;99.90;;;;;;4935556;29;20236;-68
2023/03/21 06:59:05;;;;;;;14.13;12.97;;;10.10;99.90;;;;;;4952487;29;20189;-68
2023/03/21 07:01:31;;;;;;;12.50;11.53;;;10.20;99.90;;;;;;4953310;29;20665;-67
2023/03/21 07:03:58;;;;;;;9.83;8.93;;;10.30;99.90;;;;;;4952852;29;20255;-68
2023/03/21 07:06:27;;;;;;;9.10;8.47;;;10.40;99.90;;;;;;4952719;28;20726;-68
2023/03/21 07:08:54;;;;;;;10.33;9.40;;;10.60;99.90;;;;;;4952526;29;20606;-68
2023/03/21 07:11:21;;;;;;;12.60;11.63;;;10.80;99.90;;;;;;4952745;29;20182;-68
2023/03/21 07:13:47;;;;;;;25.53;24.10;;;10.90;99.90;;;;;;4952919;29;20276;-68
2023/03/21 07:16:14;;;;;;;24.83;23.50;;;11.10;99.90;;;;;;4952490;28;20245;-67
2023/03/21 07:18:40;;;;;;;23.50;22.07;;;11.20;99.90;;;;;;4935405;29;20181;-68
2023/03/21 07:21:07;;;;;;;14.63;13.63;;;11.40;99.90;;;;;;4935795;29;20277;-69
2023/03/21 07:23:33;;;;;;;13.13;12.10;;;11.60;99.90;;;;;;4953099;29;20273;-67
2023/03/21 07:26:00;;;;;;;9.00;8.30;;;11.70;99.90;;;;;;4952645;28;20208;-67
2023/03/21 07:28:26;;;;;;;9.83;9.03;;;11.90;99.90;;;;;;4952462;29;20569;-68
2023/03/21 07:30:57;;;;;;;13.83;12.73;;;12.10;99.90;;;;;;4935968;29;20189;-69
2023/03/21 07:33:24;;;;;;;13.23;12.30;;;12.30;99.90;;;;;;4939024;29;20192;-69
2023/03/21 07:35:51;;;;;;;12.07;10.73;;;12.40;99.90;;;;;;4956058;28;20210;-69
2023/03/21 07:38:19;;;;;;;8.87;8.13;;;12.60;99.90;;;;;;4955868;29;20193;-67
2023/03/21 07:40:46;;;;;;;7.20;6.60;;;12.50;99.90;;;;;;4955988;29;20182;-69
2023/03/21 07:43:12;;;;;;;7.27;6.67;;;12.40;99.90;;;;;;4955883;29;20774;-69
2023/03/21 07:45:38;;;;;;;10.63;7.77;;;12.40;99.90;;;;;;4955968;28;20655;-69
2023/03/21 07:48:04;;;;;;;10.93;10.03;;;12.60;99.90;;;;;;4938738;29;20273;-69
2023/03/21 07:50:30;;;;;;;13.33;12.23;;;12.70;99.90;;;;;;4955451;29;20182;-69
2023/03/21 07:52:56;;;;;;;11.80;10.00;;;13.00;99.90;;;;;;4955776;29;20688;-69
2023/03/21 07:55:22;;;;;;;12.43;11.43;;;13.50;99.90;;;;;;4956091;28;20217;-68
2023/03/21 07:57:51;;;;;;;13.93;13.03;;;14.00;99.90;;;;;;4955804;29;20225;-69
2023/03/21 08:00:24;;;;;;;26.30;24.13;;;14.20;99.90;;;;;;4938190;29;20190;-69
2023/03/21 08:02:54;;;;;;;30.17;28.50;;;14.60;99.90;;;;;;4938536;29;20237;-68
2023/03/21 08:05:27;;;;;;;18.60;17.57;;;14.80;99.90;;;;;;4955464;28;20287;-69
2023/03/21 08:07:53;;;;;;;11.03;10.33;;;14.90;99.90;;;;;;4938468;29;20182;-69
2023/03/21 08:10:19;;;;;;;12.50;11.37;;;15.10;99.90;;;;;;4955136;29;20527;-69
2023/03/21 08:12:45;;;;;;;7.57;6.90;;;15.10;99.90;;;;;;4955419;29;20223;-69
2023/03/21 08:15:12;;;;;;;7.20;6.60;;;15.60;99.90;;;;;;4955017;28;20236;-69
2023/03/21 08:17:39;;;;;;;8.87;7.67;;;16.20;99.90;;;;;;4954814;29;20284;-70
2023/03/21 08:20:08;;;;;;;7.63;6.87;;;16.70;99.90;;;;;;4954726;29;20244;-69
2023/03/21 08:22:35;;;;;;;9.27;8.67;;;17.10;99.90;;;;;;4955097;29;20214;-70
2023/03/21 08:25:07;;;;;;;9.53;8.83;;;17.40;99.90;;;;;;4954991;28;20209;-69
2023/03/21 08:27:34;;;;;;;11.93;11.13;;;17.60;99.90;;;;;;4937495;29;20182;-69
2023/03/21 08:30:00;;;;;;;11.80;11.00;;;17.70;99.90;;;;;;4937037;29;20599;-69
2023/03/21 08:32:30;;;;;;;13.33;12.63;;;17.60;99.90;;;;;;4937493;29;20186;-69
2023/03/21 08:35:02;;;;;;;13.47;12.67;;;17.70;99.90;;;;;;4954637;28;20189;-69
2023/03/21 08:37:28;;;;;;;8.47;7.97;;;18.30;99.90;;;;;;4954482;29;20189;-69
2023/03/21 08:39:54;;;;;;;9.13;8.53;;;18.90;99.90;;;;;;4954084;29;20182;-70
2023/03/21 08:42:21;;;;;;;9.57;8.90;;;19.30;99.90;;;;;;4954441;28;20193;-69
2023/03/21 08:44:48;;;;;;;9.00;8.43;;;19.70;99.90;;;;;;4937265;28;20217;-69
2023/03/21 08:47:14;;;;;;;6.90;6.40;;;20.20;98.60;;;;;;4954337;29;20345;-69
2023/03/21 08:49:41;;;;;;;7.10;6.63;;;20.10;96.70;;;;;;4953912;29;20178;-69
2023/03/21 08:52:07;;;;;;;6.47;6.00;;;19.60;97.40;;;;;;4954078;29;20650;-69
2023/03/21 08:54:32;;;;;;;6.63;6.03;;;19.10;97.80;;;;;;4937174;29;20229;-70
2023/03/21 08:56:58;;;;;;;6.47;5.93;;;18.80;97.50;;;;;;4954156;28;20229;-67
2023/03/21 08:59:24;;;;;;;6.70;6.37;;;18.60;97.30;;;;;;4936469;29;20593;-67
2023/03/21 09:01:50;;;;;;;6.40;6.00;;;18.80;97.80;;;;;;4953935;29;20654;-68
2023/03/21 09:04:17;;;;;;;6.93;6.33;;;18.40;97.50;;;;;;4954124;29;20693;-69
2023/03/21 09:06:47;;;;;;;7.00;6.50;;;18.30;97.20;;;;;;4953862;28;20216;-68
2023/03/21 09:09:14;;;;;;;6.30;5.90;;;18.70;96.60;;;;;;4954004;29;20186;-68
2023/03/21 09:11:40;;;;;;;6.70;6.40;;;18.90;95.80;;;;;;4954238;29;20285;-68
2023/03/21 09:14:07;;;;;;;8.30;7.60;;;18.70;94.80;;;;;;4954269;29;20735;-68
2023/03/21 09:16:32;;;;;;;6.87;6.43;;;18.60;96.10;;;;;;4954024;28;20217;-68
2023/03/21 09:18:59;;;;;;;7.17;6.77;;;18.40;95.20;;;;;;4953836;29;20197;-68
2023/03/21 09:21:26;;;;;;;7.20;6.80;;;18.50;94.70;;;;;;4953991;29;20285;-68
2023/03/21 09:23:55;;;;;;;5.70;5.30;;;18.90;94.60;;;;;;4936942;29;20223;-67
2023/03/21 09:26:26;;;;;;;6.07;5.77;;;19.10;93.20;;;;;;4953990;28;20237;-67
2023/03/21 09:28:53;;;;;;;7.07;6.47;;;19.40;93.40;;;;;;4953648;29;20193;-70
2023/03/21 09:31:22;;;;;;;8.80;8.33;;;19.80;93.20;;;;;;4936769;29;20185;-71
2023/03/21 09:33:49;;;;;;;10.97;10.27;;;20.10;92.70;;;;;;4953801;29;20794;-70
2023/03/21 09:36:15;;;;;;;9.90;9.33;;;20.00;92.40;;;;;;4953718;28;20209;-67
2023/03/21 09:38:44;;;;;;;9.50;9.05;;;20.00;91.90;;;;;;4953520;29;20604;-68
2023/03/21 09:41:37;;;;;;;8.35;7.85;;;20.50;91.40;;;;;;4953806;29;20674;-70
2023/03/21 09:44:13;;;;;;;7.53;7.05;;;20.80;89.90;;;;;;4953738;29;20205;-70
2023/03/21 09:47:02;;;;;;;8.27;7.88;;;21.30;89.70;;;;;;4953766;28;20704;-70
2023/03/21 09:49:33;;;;;;;8.00;7.60;;;21.50;86.60;;;;;;4953364;28;20178;-69
2023/03/21 09:52:04;;;;;;;5.80;5.50;;;21.40;85.60;;;;;;4953654;29;20184;-70
2023/03/21 09:54:38;;;;;;;4.90;4.60;;;21.20;86.50;;;;;;4953151;28;20217;-70
2023/03/21 09:57:36;;;;;;;5.35;4.88;;;21.30;82.50;;;;;;4953774;28;20689;-68
2023/03/21 10:00:08;;;;;;;5.50;5.10;;;20.70;85.00;;;;;;4953344;29;20268;-69
2023/03/21 10:02:39;;;;;;;5.55;5.10;;;20.40;86.80;;;;;;4953398;29;20193;-68
2023/03/21 10:05:29;;;;;;;6.03;5.43;;;20.00;86.60;;;;;;4953366;28;20229;-68
2023/03/21 10:08:08;;;;;;;5.40;5.10;;;20.80;84.60;;;;;;4954783;29;20269;-69
2023/03/21 10:10:40;;;;;;;4.82;4.45;;;21.40;84.20;;;;;;4954007;29;20185;-69
2023/03/21 10:13:14;;;;;;;6.30;6.03;;;21.60;82.30;;;;;;4954613;29;20201;-69
2023/03/21 10:15:40;;;;;;;12.77;12.15;;;21.00;80.50;;;;;;4960388;23;20231;-73
2023/03/21 10:18:07;;;;;;;6.82;6.50;;;20.80;80.20;;;;;;4971324;28;20557;-73
2023/03/21 10:20:37;;;;;;;23.73;22.60;;;21.10;82.30;;;;;;4971686;28;20181;-73
2023/03/21 10:23:06;;;;;;;23.50;22.35;;;21.40;77.50;;;;;;4972473;28;20185;-73
2023/03/21 10:25:34;;;;;;;35.10;33.25;;;21.40;78.90;;;;;;4970978;28;20221;-73
2023/03/21 10:28:02;;;;;;;42.88;40.78;;;21.70;76.70;;;;;;4972572;28;20188;-72
2023/03/21 10:30:39;;;;;;;67.43;64.15;;;20.90;75.60;;;;;;4972185;28;20184;-73
2023/03/21 10:33:10;;;;;;;44.00;41.95;;;21.00;75.90;;;;;;4972521;28;20192;-73
2023/03/21 10:35:38;;;;;;;44.20;41.97;;;21.00;76.50;;;;;;4972292;28;20467;-73
2023/03/21 10:38:05;;;;;;;61.15;58.10;;;21.70;74.00;;;;;;4972454;28;20177;-73
2023/03/21 10:40:31;;;;;;;42.90;40.83;;;22.50;73.70;;;;;;4972048;28;20697;-73
2023/03/21 10:43:26;;;;;;;38.97;37.05;;;22.10;72.90;;;;;;4972345;28;20292;-72
2023/03/21 10:45:53;;;;;;;23.00;21.90;;;22.00;73.20;;;;;;4972436;28;20299;-72
2023/03/21 10:48:22;;;;;;;18.13;17.30;;;22.30;69.50;;;;;;4972487;28;20176;-72
2023/03/21 10:50:51;;;;;;;16.55;15.80;;;22.20;68.70;;;;;;4985659;28;20192;-72
2023/03/21 10:53:31;;;;;;;11.95;11.45;;;22.10;71.70;;;;;;4980788;28;20325;-71
2023/03/21 10:56:00;;;;;;;10.13;9.60;;;21.40;68.30;;;;;;4973611;28;20235;-73
2023/03/21 10:58:29;;;;;;;18.15;17.13;;;21.70;69.00;;;;;;4972860;28;20253;-72
2023/03/21 11:00:57;;;;;;;13.30;12.70;;;21.90;71.00;;;;;;4973238;28;20724;-72
2023/03/21 11:03:30;;;;;;;12.55;11.98;;;22.00;69.10;;;;;;4972334;28;20177;-72
2023/03/21 11:06:02;;;;;;;13.15;12.25;;;22.30;67.50;;;;;;4972770;28;20228;-72
2023/03/21 11:08:29;;;;;;;7.70;7.40;;;22.60;68.00;;;;;;4975908;28;20189;-72
2023/03/21 11:11:05;;;;;;;8.07;7.68;;;22.60;66.30;;;;;;4974893;28;20188;-72
2023/03/21 11:13:44;;;;;;;4.80;4.40;;;23.50;66.40;;;;;;4974864;28;20526;-72
2023/03/21 11:16:30;;;;;;;4.20;4.00;;;23.90;63.60;;;;;;4975773;28;20323;-72
2023/03/21 11:19:01;;;;;;;4.13;3.95;;;23.20;64.30;;;;;;4974351;28;20217;-72
2023/03/21 11:21:33;;;;;;;3.78;3.58;;;23.50;63.60;;;;;;4977119;28;20185;-71
2023/03/21 11:23:59;;;;;;;3.80;3.70;;;24.00;59.50;;;;;;4974833;28;20331;-72
2023/03/21 11:26:29;;;;;;;3.63;3.35;;;24.10;58.60;;;;;;4981864;28;20197;-72
2023/03/21 11:28:56;;;;;;;3.38;3.28;;;24.00;60.40;;;;;;4992329;28;20185;-73
2023/03/21 11:31:25;;;;;;;3.63;3.47;;;23.20;60.20;;;;;;4983690;28;20548;-73
2023/03/21 11:33:55;;;;;;;3.78;3.58;;;23.10;62.80;;;;;;4974569;28;20653;-73
2023/03/21 11:36:21;;;;;;;4.90;4.50;;;22.60;62.10;;;;;;4975649;28;20626;-73
2023/03/21 11:38:50;;;;;;;4.68;4.45;;;22.40;62.80;;;;;;4973806;28;20181;-73
2023/03/21 11:41:27;;;;;;;7.68;6.68;;;21.90;63.10;;;;;;4975400;28;20683;-73
2023/03/21 11:43:55;;;;;;;5.60;4.88;;;21.70;64.60;;;;;;4975306;28;20351;-73
2023/03/21 11:46:29;;;;;;;4.40;4.10;;;21.50;64.10;;;;;;4975187;28;20343;-73
2023/03/21 11:48:56;;;;;;;4.60;4.40;;;21.30;63.10;;;;;;4975021;28;20664;-73
2023/03/21 11:51:24;;;;;;;4.63;4.45;;;21.10;62.90;;;;;;4975049;28;20275;-73
2023/03/21 11:54:24;;;;;;;4.63;4.32;;;21.20;63.60;;;;;;4974954;28;20220;-72
2023/03/21 11:57:00;;;;;;;4.85;4.65;;;21.20;61.70;;;;;;4973612;28;20213;-73
2023/03/21 11:59:41;;;;;;;5.15;4.85;;;21.40;63.30;;;;;;4973160;28;20644;-73
2023/03/21 12:02:47;;;;;;;6.07;5.88;;;21.10;66.80;;;;;;4974422;28;20184;-73
2023/03/21 12:05:26;;;;;;;5.93;5.63;;;20.40;66.90;;;;;;4974472;28;20220;-73
2023/03/21 12:08:22;;;;;;;6.35;6.15;;;20.00;66.80;;;;;;4974598;28;20232;-73
2023/03/21 12:11:16;;;;;;;14.05;13.35;;;20.00;67.60;;;;;;4974394;28;20272;-73
2023/03/21 12:13:59;;;;;;;21.35;20.25;;;19.80;69.50;;;;;;4974509;28;20185;-73
2023/03/21 12:17:04;;;;;;;21.70;20.67;;;19.90;70.30;;;;;;4972682;28;20274;-73
2023/03/21 12:19:41;;;;;;;36.47;34.77;;;19.50;70.30;;;;;;4924753;28;20207;-73
2023/03/21 12:22:40;;;;;;;35.90;34.10;;;19.40;72.90;;;;;;4974265;28;20193;-73
2023/03/21 12:25:17;;;;;;;20.20;19.23;;;19.50;70.20;;;;;;4974277;28;20593;-73
2023/03/21 12:27:58;;;;;;;37.27;35.53;;;19.40;68.60;;;;;;4974163;28;20189;-73
2023/03/21 12:30:34;;;;;;;32.00;30.23;;;19.60;71.20;;;;;;4972750;28;20217;-73
2023/03/21 12:33:21;;;;;;;40.47;38.37;;;19.60;69.90;;;;;;4974330;28;20181;-73
2023/03/21 12:35:53;;;;;;;39.70;37.80;;;19.80;73.20;;;;;;4973840;28;20201;-73
2023/03/21 12:38:36;;;;;;;36.20;34.47;;;19.40;74.60;;;;;;4973724;28;20185;-73
2023/03/21 12:41:18;;;;;;;17.87;16.87;;;19.20;74.90;;;;;;4972694;28;20276;-73
2023/03/21 12:43:49;;;;;;;21.13;20.13;;;19.10;76.60;;;;;;4974336;28;20846;-73
2023/03/21 12:46:43;;;;;;;17.13;16.23;;;19.20;76.30;;;;;;4994053;28;20203;-73
2023/03/21 12:49:21;;;;;;;18.60;17.50;;;19.20;75.40;;;;;;4974914;28;20204;-73
2023/03/21 12:51:50;;;;;;;13.50;12.90;;;19.30;75.50;;;;;;4973794;28;20177;-73
2023/03/21 12:54:22;;;;;;;18.07;17.10;;;19.40;76.70;;;;;;4972454;28;20181;-73
2023/03/21 12:57:03;;;;;;;29.00;27.50;;;19.40;75.70;;;;;;4973465;28;20777;-73
2023/03/21 12:59:40;;;;;;;35.70;34.00;;;19.30;73.80;;;;;;4973081;28;20200;-73
2023/03/21 13:02:30;;;;;;;15.87;15.07;;;19.30;72.70;;;;;;4973446;28;20202;-72
2023/03/21 13:05:15;;;;;;;17.95;17.05;;;19.50;76.30;;;;;;4973497;28;20239;-73
2023/03/21 13:07:44;;;;;;;36.03;34.23;;;19.60;73.90;;;;;;4973519;28;20244;-73
2023/03/21 13:10:21;;;;;;;36.87;35.03;;;19.70;72.80;;;;;;4971829;28;20196;-73
2023/03/21 13:13:14;;;;;;;31.58;29.85;;;19.80;74.10;;;;;;4973824;28;20191;-73
2023/03/21 13:16:17;;;;;;;35.22;33.50;;;19.90;73.80;;;;;;4973371;28;20212;-72
2023/03/21 13:19:06;;;;;;;35.70;33.90;;;19.70;73.80;;;;;;4973251;28;20188;-72
2023/03/21 13:21:50;;;;;;;35.67;33.87;;;19.50;75.50;;;;;;4973560;28;20192;-72
2023/03/21 13:24:23;;;;;;;32.03;30.43;;;19.40;74.90;;;;;;4973484;28;20692;-72
2023/03/21 13:26:52;;;;;;;29.17;27.77;;;19.40;74.40;;;;;;4973559;28;20275;-72
2023/03/21 13:29:24;;;;;;;26.47;25.00;;;19.30;75.70;;;;;;4972283;28;20189;-72
2023/03/21 13:31:52;;;;;;;21.08;20.08;;;19.20;75.10;;;;;;4973320;28;20276;-72
2023/03/21 13:34:21;;;;;;;30.23;28.63;;;19.40;75.70;;;;;;4973354;28;20185;-72
2023/03/21 13:36:49;;;;;;;23.30;22.20;;;19.40;74.80;;;;;;4972023;28;20209;-72
2023/03/21 13:39:25;;;;;;;26.90;25.70;;;19.30;76.00;;;;;;4972889;28;20240;-72
2023/03/21 13:41:53;;;;;;;21.87;20.73;;;19.30;74.50;;;;;;4973282;28;20215;-72
2023/03/21 13:44:30;;;;;;;28.57;27.13;;;19.30;74.50;;;;;;4971842;28;20208;-72
2023/03/21 13:47:24;;;;;;;26.43;25.23;;;19.40;74.00;;;;;;4973176;28;20205;-72
2023/03/21 13:50:27;;;;;;;35.67;33.87;;;19.70;75.80;;;;;;4972969;28;20678;-72
2023/03/21 13:53:17;;;;;;;37.63;35.67;;;19.50;71.90;;;;;;4875935;29;20672;-72
2023/03/21 13:55:45;;;;;;;25.77;24.58;;;19.50;71.40;;;;;;4968820;28;20586;-72
2023/03/21 13:58:39;;;;;;;7.80;7.30;;;19.30;75.30;;;;;;4972866;28;20208;-72
2023/03/21 14:01:16;;;;;;;6.93;4.53;;;19.10;79.20;;;;;;4972585;28;20601;-72
2023/03/21 14:03:44;;;;;;;5.17;4.23;;;19.00;78.80;;;;;;4972878;28;20307;-72
2023/03/21 14:06:11;;;;;;;4.70;4.50;;;19.00;79.00;;;;;;4971537;28;20559;-72
2023/03/21 14:08:39;;;;;;;4.57;4.20;;;18.90;78.40;;;;;;4971284;28;20192;-72
2023/03/21 14:11:10;;;;;;;5.17;4.83;;;19.00;79.30;;;;;;4971151;28;20231;-72
2023/03/21 14:13:41;;;;;;;4.50;4.30;;;19.10;78.80;;;;;;4971496;28;20193;-72
2023/03/21 14:16:15;;;;;;;6.67;6.37;;;18.90;80.00;;;;;;4972376;28;20300;-72
2023/03/21 14:18:53;;;;;;;7.73;7.23;;;18.70;80.00;;;;;;4972199;28;20180;-72
2023/03/21 14:21:25;;;;;;;6.50;6.10;;;18.60;81.70;;;;;;4971221;28;20185;-72
2023/03/21 14:24:12;;;;;;;4.87;4.47;;;18.40;82.50;;;;;;4972391;28;20223;-72
2023/03/21 14:26:57;;;;;;;4.77;4.47;;;18.20;82.90;;;;;;4972510;28;20200;-72
2023/03/21 14:29:32;;;;;;;4.90;4.60;;;18.30;81.10;;;;;;4971093;28;20176;-72
2023/03/21 14:31:59;;;;;;;4.30;4.00;;;18.30;81.80;;;;;;4972606;28;20215;-72
2023/03/21 14:34:27;;;;;;;6.33;4.20;;;18.20;82.40;;;;;;4971627;28;20188;-72
2023/03/21 14:36:53;;;;;;;6.40;5.33;;;18.30;84.00;;;;;;4971398;28;20236;-72
2023/03/21 14:39:26;;;;;;;8.47;7.70;;;18.20;83.10;;;;;;4972188;28;20189;-72
2023/03/21 14:41:54;;;;;;;7.00;6.30;;;18.20;83.50;;;;;;4994652;28;20196;-72
2023/03/21 14:44:33;;;;;;;5.80;5.30;;;18.20;83.10;;;;;;4992105;28;20209;-72
2023/03/21 14:47:04;;;;;;;5.67;5.27;;;18.10;83.40;;;;;;4976521;28;20201;-72
2023/03/21 14:49:33;;;;;;;13.13;10.30;;;18.10;83.00;;;;;;4974899;28;20680;-72
2023/03/21 14:52:02;;;;;;;7.80;7.10;;;18.10;83.40;;;;;;4976395;28;20177;-72
2023/03/21 14:54:30;;;;;;;6.73;6.13;;;18.00;84.70;;;;;;4976178;28;20231;-72
2023/03/21 14:57:02;;;;;;;4.43;4.23;;;18.00;86.00;;;;;;4975081;28;20287;-72
2023/03/21 14:59:37;;;;;;;4.70;4.50;;;18.00;87.70;;;;;;4975915;28;20224;-72
2023/03/21 15:02:28;;;;;;;5.20;4.80;;;18.00;86.90;;;;;;4979293;28;20192;-71
2023/03/21 15:04:57;;;;;;;4.50;4.10;;;18.00;86.00;;;;;;4969174;28;20231;-72
2023/03/21 15:07:31;;;;;;;4.93;4.53;;;18.20;86.30;;;;;;4976415;28;20228;-72
2023/03/21 15:10:02;;;;;;;5.43;4.13;;;18.40;84.60;;;;;;4975436;28;20180;-72
2023/03/21 15:12:28;;;;;;;5.53;5.03;;;18.50;83.00;;;;;;4978149;28;20181;-72
2023/03/21 15:14:55;;;;;;;6.40;5.90;;;18.60;81.10;;;;;;4991948;28;20176;-72
2023/03/21 15:17:23;;;;;;;6.07;5.60;;;18.60;80.60;;;;;;4994734;28;20266;-72
2023/03/21 15:19:49;;;;;;;5.60;5.20;;;18.60;81.20;;;;;;4993638;28;20274;-72
2023/03/21 15:22:39;;;;;;;4.97;4.57;;;18.50;81.80;;;;;;4993655;28;20341;-72
2023/03/21 15:25:07;;;;;;;5.43;4.57;;;18.30;85.50;;;;;;4993777;28;20243;-71
2023/03/21 15:27:41;;;;;;;4.70;4.50;;;18.10;86.60;;;;;;4994684;28;20556;-71
2023/03/21 15:30:18;;;;;;;4.90;4.60;;;18.10;86.20;;;;;;4994407;28;20195;-71
2023/03/21 15:32:44;;;;;;;4.43;4.20;;;18.00;86.70;;;;;;4993492;28;20183;-72
2023/03/21 15:35:17;;;;;;;4.40;4.10;;;18.00;87.30;;;;;;4994683;28;20184;-72
2023/03/21 15:37:55;;;;;;;5.20;4.80;;;17.90;88.10;;;;;;4993597;28;20192;-71
2023/03/21 15:40:33;;;;;;;5.50;5.00;;;17.90;87.50;;;;;;4993032;28;20195;-72
2023/03/21 15:43:16;;;;;;;5.00;4.70;;;17.90;88.30;;;;;;4994590;28;20201;-72
2023/03/21 15:45:51;;;;;;;5.67;5.17;;;17.80;88.80;;;;;;4994400;28;20216;-71
2023/03/21 15:48:25;;;;;;;6.40;5.93;;;17.70;90.10;;;;;;4994318;28;20651;-72
2023/03/21 15:51:00;;;;;;;6.20;5.67;;;17.60;89.90;;;;;;4994511;28;20275;-71
2023/03/21 15:53:26;;;;;;;10.00;9.50;;;17.50;90.10;;;;;;4993626;28;20188;-72
2023/03/21 15:56:03;;;;;;;11.73;11.07;;;17.50;90.90;;;;;;4994128;28;20196;-71
2023/03/21 15:58:35;;;;;;;13.70;12.93;;;17.40;91.00;;;;;;4992785;28;20267;-72
2023/03/21 16:01:05;;;;;;;15.43;14.63;;;17.30;91.30;;;;;;4992842;28;20182;-71
2023/03/21 16:03:35;;;;;;;15.23;14.43;;;17.10;91.50;;;;;;4993005;28;20280;-71
2023/03/21 16:06:24;;;;;;;14.77;13.73;;;17.00;90.80;;;;;;4993918;28;20204;-71
2023/03/21 16:09:09;;;;;;;16.37;15.30;;;16.90;90.90;;;;;;4993713;28;20189;-71
2023/03/21 16:11:57;;;;;;;16.63;15.13;;;16.70;91.60;;;;;;4993975;28;20731;-71
2023/03/21 16:14:26;;;;;;;14.57;13.77;;;16.60;91.70;;;;;;4994124;28;20204;-71
2023/03/21 16:16:53;;;;;;;10.60;9.90;;;16.40;92.40;;;;;;5015824;23;20235;-69
2023/03/21 16:19:18;;;;;;;8.23;7.40;;;16.30;92.80;;;;;;4992846;28;20590;-69
2023/03/21 16:21:45;;;;;;;6.90;6.00;;;16.20;93.10;;;;;;4993705;28;20271;-70
2023/03/21 16:24:12;;;;;;;5.90;5.50;;;16.20;93.50;;;;;;4993426;28;20282;-69
2023/03/21 16:26:49;;;;;;;7.17;6.73;;;16.10;93.60;;;;;;4993621;28;20200;-67
2023/03/21 16:29:17;;;;;;;8.47;7.70;;;16.10;94.10;;;;;;4984994;28;20208;-68
2023/03/21 16:31:45;;;;;;;9.40;8.73;;;16.00;93.90;;;;;;4974752;28;20194;-70
2023/03/21 16:34:11;;;;;;;15.03;13.17;;;16.10;94.40;;;;;;4975911;28;20189;-67
2023/03/21 16:36:39;;;;;;;11.60;9.00;;;16.10;94.70;;;;;;4993556;28;20222;-68
2023/03/21 16:39:20;;;;;;;11.00;10.33;;;16.00;94.00;;;;;;4992327;28;20196;-69
2023/03/21 16:41:47;;;;;;;14.23;13.00;;;16.00;94.60;;;;;;4992812;28;20192;-69
2023/03/21 16:44:14;;;;;;;16.00;15.00;;;15.90;95.00;;;;;;4993185;28;20228;-69
2023/03/21 16:46:39;;;;;;;16.37;15.47;;;15.70;94.70;;;;;;4993406;28;20204;-69
2023/03/21 16:49:25;;;;;;;14.57;13.57;;;15.60;95.20;;;;;;4993168;28;20264;-69
2023/03/21 16:51:53;;;;;;;31.10;28.70;;;15.50;96.00;;;;;;4992338;28;20275;-69
2023/03/21 16:54:18;;;;;;;14.80;13.80;;;15.40;96.40;;;;;;4993307;28;20188;-69
2023/03/21 16:56:48;;;;;;;14.83;13.93;;;15.30;96.80;;;;;;4993262;28;20208;-71
2023/03/21 16:59:14;;;;;;;16.20;15.10;;;15.30;97.30;;;;;;4995478;28;20291;-69